createdAt,value
2023-04-18T00:00:04.849Z,774.00
2023-04-18T00:00:34.852Z,774.00
2023-04-18T00:01:04.849Z,776.00
2023-04-18T00:01:34.854Z,775.00
2023-04-18T00:02:04.892Z,772.00
2023-04-18T00:02:34.973Z,771.00
2023-04-18T00:03:05.162Z,773.00
2023-04-18T00:03:35.102Z,774.00
2023-04-18T00:04:05.455Z,776.00
2023-04-18T00:04:35.252Z,778.00
2023-04-18T00:05:05.208Z,776.00
2023-04-18T00:05:35.200Z,775.00
2023-04-18T00:06:05.218Z,781.00
2023-04-18T00:06:35.224Z,774.00
2023-04-18T00:07:05.229Z,773.00
2023-04-18T00:08:05.340Z,769.00
2023-04-18T00:08:35.343Z,771.00
2023-04-18T00:09:05.431Z,770.00
2023-04-18T00:09:35.509Z,768.00
2023-04-18T00:10:05.501Z,770.00
2023-04-18T00:10:35.615Z,769.00
2023-04-18T00:11:05.697Z,767.00
2023-04-18T00:11:35.775Z,765.00
2023-04-18T00:12:05.873Z,765.00
2023-04-18T00:12:35.952Z,772.00
2023-04-18T00:13:06.077Z,771.00
2023-04-18T00:13:36.142Z,772.00
2023-04-18T00:14:06.234Z,772.00
2023-04-18T00:14:36.331Z,773.00
2023-04-18T00:15:06.410Z,774.00
2023-04-18T00:15:36.496Z,775.00
2023-04-18T00:16:06.579Z,771.00
2023-04-18T00:16:36.715Z,773.00
2023-04-18T00:17:06.891Z,772.00
2023-04-18T00:17:36.860Z,770.00
2023-04-18T00:18:06.986Z,768.00
2023-04-18T00:18:37.145Z,769.00
2023-04-18T00:19:07.165Z,768.00
2023-04-18T00:19:37.243Z,769.00
2023-04-18T00:20:07.345Z,768.00
2023-04-18T00:20:37.342Z,763.00
2023-04-18T00:21:07.358Z,763.00
2023-04-18T00:21:37.369Z,760.00
2023-04-18T00:22:07.368Z,764.00
2023-04-18T00:22:37.370Z,759.00
2023-04-18T00:23:07.408Z,758.00
2023-04-18T00:23:37.405Z,762.00
2023-04-18T00:24:07.415Z,762.00
2023-04-18T00:24:37.428Z,761.00
2023-04-18T00:25:07.432Z,758.00
2023-04-18T00:25:37.439Z,757.00
2023-04-18T00:26:07.454Z,757.00
2023-04-18T00:26:37.458Z,756.00
2023-04-18T00:27:07.463Z,754.00
2023-04-18T00:27:37.472Z,758.00
2023-04-18T00:28:07.510Z,758.00
2023-04-18T00:28:37.481Z,761.00
2023-04-18T00:29:37.579Z,758.00
2023-04-18T00:30:07.595Z,756.00
2023-04-18T00:30:37.731Z,754.00
2023-04-18T00:31:07.701Z,755.00
2023-04-18T00:31:37.712Z,753.00
2023-04-18T00:32:07.720Z,752.00
2023-04-18T00:32:37.783Z,755.00
2023-04-18T00:33:07.740Z,756.00
2023-04-18T00:33:37.764Z,750.00
2023-04-18T00:34:07.770Z,756.00
2023-04-18T00:34:37.777Z,755.00
2023-04-18T00:35:07.857Z,754.00
2023-04-18T00:35:37.883Z,753.00
2023-04-18T00:36:07.874Z,758.00
2023-04-18T00:36:37.881Z,753.00
2023-04-18T00:37:07.903Z,752.00
2023-04-18T00:37:37.903Z,752.00
2023-04-18T00:38:07.902Z,752.00
2023-04-18T00:38:37.907Z,748.00
2023-04-18T00:39:07.922Z,753.00
2023-04-18T00:39:37.925Z,753.00
2023-04-18T00:40:07.924Z,752.00
2023-04-18T00:40:37.937Z,756.00
2023-04-18T00:41:07.936Z,752.00
2023-04-18T00:42:08.034Z,752.00
2023-04-18T00:42:38.047Z,754.00
2023-04-18T00:43:08.071Z,756.00
2023-04-18T00:43:38.098Z,759.00
2023-04-18T00:44:38.268Z,757.00
2023-04-18T00:45:08.270Z,760.00
2023-04-18T00:45:38.291Z,754.00
2023-04-18T00:46:08.333Z,758.00
2023-04-18T00:46:38.400Z,754.00
2023-04-18T00:47:08.424Z,752.00
2023-04-18T00:47:38.469Z,752.00
2023-04-18T00:48:08.607Z,752.00
2023-04-18T00:48:38.517Z,750.00
2023-04-18T00:49:08.512Z,747.00
2023-04-18T00:49:38.553Z,744.00
2023-04-18T00:50:08.530Z,747.00
2023-04-18T00:51:08.615Z,743.00
2023-04-18T00:51:38.629Z,743.00
2023-04-18T00:52:08.642Z,741.00
2023-04-18T00:52:38.657Z,742.00
2023-04-18T00:53:08.692Z,742.00
2023-04-18T00:53:38.696Z,742.00
2023-04-18T00:54:08.705Z,742.00
2023-04-18T00:54:38.719Z,742.00
2023-04-18T00:55:08.718Z,738.00
2023-04-18T00:55:38.726Z,741.00
2023-04-18T00:56:08.733Z,739.00
2023-04-18T00:56:38.752Z,739.00
2023-04-18T00:57:08.750Z,741.00
2023-04-18T00:57:38.761Z,741.00
2023-04-18T00:58:08.776Z,740.00
2023-04-18T00:58:38.789Z,737.00
2023-04-18T00:59:08.846Z,739.00
2023-04-18T00:59:38.836Z,737.00
2023-04-18T01:00:38.936Z,742.00
2023-04-18T01:01:08.985Z,739.00
2023-04-18T01:01:39.135Z,740.00
2023-04-18T01:02:09.125Z,741.00
2023-04-18T01:02:39.279Z,741.00
2023-04-18T01:03:09.311Z,739.00
2023-04-18T01:03:39.532Z,738.00
2023-04-18T01:04:09.447Z,735.00
2023-04-18T01:04:39.430Z,734.00
2023-04-18T01:05:09.458Z,736.00
2023-04-18T01:05:39.493Z,736.00
2023-04-18T01:06:09.471Z,735.00
2023-04-18T01:06:39.489Z,734.00
2023-04-18T01:07:09.487Z,736.00
2023-04-18T01:07:39.491Z,736.00
2023-04-18T01:08:09.508Z,734.00
2023-04-18T01:08:39.518Z,732.00
2023-04-18T01:09:09.532Z,732.00
2023-04-18T01:09:39.542Z,733.00
2023-04-18T01:10:09.660Z,735.00
2023-04-18T01:10:39.742Z,738.00
2023-04-18T01:11:09.832Z,737.00
2023-04-18T01:11:39.920Z,737.00
2023-04-18T01:12:09.996Z,736.00
2023-04-18T01:12:40.078Z,735.00
2023-04-18T01:13:10.190Z,735.00
2023-04-18T01:13:40.164Z,736.00
2023-04-18T01:14:10.251Z,737.00
2023-04-18T01:14:40.350Z,735.00
2023-04-18T01:15:10.414Z,735.00
2023-04-18T01:15:40.519Z,735.00
2023-04-18T01:16:10.612Z,735.00
2023-04-18T01:16:40.595Z,736.00
2023-04-18T01:17:10.693Z,734.00
2023-04-18T01:17:40.809Z,736.00
2023-04-18T01:18:10.800Z,736.00
2023-04-18T01:18:40.865Z,737.00
2023-04-18T01:19:10.945Z,739.00
2023-04-18T01:19:41.028Z,739.00
2023-04-18T01:20:11.125Z,739.00
2023-04-18T01:20:41.129Z,738.00
2023-04-18T01:21:11.136Z,738.00
2023-04-18T01:21:41.143Z,739.00
2023-04-18T01:22:11.148Z,737.00
2023-04-18T01:22:41.162Z,737.00
2023-04-18T01:23:11.206Z,739.00
2023-04-18T01:23:41.195Z,741.00
2023-04-18T01:24:11.709Z,737.00
2023-04-18T01:24:41.251Z,738.00
2023-04-18T01:25:11.270Z,738.00
2023-04-18T01:25:41.262Z,738.00
2023-04-18T01:26:11.271Z,737.00
2023-04-18T01:26:41.294Z,736.00
2023-04-18T01:27:11.274Z,736.00
2023-04-18T01:27:41.292Z,733.00
2023-04-18T01:28:11.310Z,733.00
2023-04-18T01:28:41.324Z,738.00
2023-04-18T01:29:11.332Z,734.00
2023-04-18T01:29:41.346Z,734.00
2023-04-18T01:30:11.584Z,736.00
2023-04-18T01:30:41.541Z,734.00
2023-04-18T01:31:41.650Z,728.00
2023-04-18T01:32:11.661Z,727.00
2023-04-18T01:32:41.700Z,728.00
2023-04-18T01:33:11.742Z,728.00
2023-04-18T01:33:41.731Z,733.00
2023-04-18T01:34:12.020Z,729.00
2023-04-18T01:34:41.832Z,732.00
2023-04-18T01:35:11.844Z,730.00
2023-04-18T01:35:41.857Z,728.00
2023-04-18T01:36:11.850Z,729.00
2023-04-18T01:36:41.861Z,731.00
2023-04-18T01:37:11.876Z,727.00
2023-04-18T01:37:41.953Z,729.00
2023-04-18T01:38:12.303Z,724.00
2023-04-18T01:38:41.967Z,723.00
2023-04-18T01:39:42.063Z,717.00
2023-04-18T01:40:12.082Z,717.00
2023-04-18T01:40:42.089Z,718.00
2023-04-18T01:41:12.093Z,719.00
2023-04-18T01:41:42.108Z,720.00
2023-04-18T01:42:12.124Z,715.00
2023-04-18T01:42:42.128Z,719.00
2023-04-18T01:43:12.164Z,718.00
2023-04-18T01:43:42.176Z,723.00
2023-04-18T01:44:12.487Z,723.00
2023-04-18T01:44:42.201Z,727.00
2023-04-18T01:45:12.228Z,727.00
2023-04-18T01:45:42.253Z,724.00
2023-04-18T01:46:12.263Z,725.00
2023-04-18T01:46:42.312Z,728.00
2023-04-18T01:47:12.330Z,727.00
2023-04-18T01:47:42.409Z,726.00
2023-04-18T01:48:12.436Z,725.00
2023-04-18T01:48:42.438Z,725.00
2023-04-18T01:49:12.436Z,721.00
2023-04-18T01:49:42.452Z,722.00
2023-04-18T01:50:12.460Z,720.00
2023-04-18T01:50:42.464Z,720.00
2023-04-18T01:51:12.471Z,721.00
2023-04-18T01:51:42.485Z,722.00
2023-04-18T01:52:12.497Z,723.00
2023-04-18T01:52:42.500Z,721.00
2023-04-18T01:53:12.532Z,717.00
2023-04-18T01:53:42.532Z,717.00
2023-04-18T01:54:12.887Z,718.00
2023-04-18T01:54:42.561Z,715.00
2023-04-18T01:55:12.573Z,717.00
2023-04-18T01:55:42.568Z,717.00
2023-04-18T01:56:12.572Z,718.00
2023-04-18T01:56:42.580Z,716.00
2023-04-18T01:57:12.595Z,716.00
2023-04-18T01:57:42.618Z,717.00
2023-04-18T01:58:12.642Z,716.00
2023-04-18T01:58:42.645Z,717.00
2023-04-18T01:59:12.652Z,714.00
2023-04-18T01:59:42.669Z,713.00
2023-04-18T02:00:12.681Z,712.00
2023-04-18T02:00:42.802Z,716.00
2023-04-18T02:01:12.758Z,713.00
2023-04-18T02:01:42.868Z,715.00
2023-04-18T02:02:12.929Z,713.00
2023-04-18T02:02:43.129Z,716.00
2023-04-18T02:03:13.178Z,715.00
2023-04-18T02:03:43.531Z,719.00
2023-04-18T02:04:13.548Z,720.00
2023-04-18T02:04:43.164Z,719.00
2023-04-18T02:05:13.179Z,718.00
2023-04-18T02:05:43.167Z,719.00
2023-04-18T02:06:13.166Z,716.00
2023-04-18T02:06:43.192Z,715.00
2023-04-18T02:07:13.197Z,712.00
2023-04-18T02:07:43.234Z,712.00
2023-04-18T02:08:13.227Z,712.00
2023-04-18T02:08:43.222Z,711.00
2023-04-18T02:09:13.243Z,708.00
2023-04-18T02:09:43.239Z,708.00
2023-04-18T02:10:13.353Z,709.00
2023-04-18T02:10:43.434Z,710.00
2023-04-18T02:11:13.541Z,710.00
2023-04-18T02:11:43.609Z,708.00
2023-04-18T02:12:13.692Z,710.00
2023-04-18T02:12:43.772Z,708.00
2023-04-18T02:13:13.998Z,708.00
2023-04-18T02:13:43.959Z,704.00
2023-04-18T02:14:14.074Z,702.00
2023-04-18T02:14:44.021Z,704.00
2023-04-18T02:15:14.117Z,703.00
2023-04-18T02:15:44.184Z,698.00
2023-04-18T02:16:14.371Z,702.00
2023-04-18T02:16:44.420Z,700.00
2023-04-18T02:17:14.393Z,701.00
2023-04-18T02:17:44.522Z,699.00
2023-04-18T02:18:14.495Z,699.00
2023-04-18T02:18:44.584Z,696.00
2023-04-18T02:19:14.676Z,701.00
2023-04-18T02:19:44.758Z,698.00
2023-04-18T02:20:14.851Z,696.00
2023-04-18T02:20:44.867Z,694.00
2023-04-18T02:21:14.869Z,694.00
2023-04-18T02:21:44.881Z,693.00
2023-04-18T02:22:14.879Z,693.00
2023-04-18T02:22:44.892Z,694.00
2023-04-18T02:23:14.930Z,696.00
2023-04-18T02:23:44.923Z,694.00
2023-04-18T02:24:15.226Z,695.00
2023-04-18T02:24:44.994Z,696.00
2023-04-18T02:25:14.996Z,693.00
2023-04-18T02:25:45.001Z,693.00
2023-04-18T02:26:15.012Z,693.00
2023-04-18T02:26:45.010Z,691.00
2023-04-18T02:27:15.025Z,692.00
2023-04-18T02:27:45.016Z,692.00
2023-04-18T02:28:15.049Z,695.00
2023-04-18T02:28:45.084Z,694.00
2023-04-18T02:29:15.082Z,697.00
2023-04-18T02:29:45.085Z,697.00
2023-04-18T02:30:15.090Z,693.00
2023-04-18T02:30:45.111Z,696.00
2023-04-18T02:31:15.162Z,695.00
2023-04-18T02:31:45.283Z,694.00
2023-04-18T02:32:15.227Z,696.00
2023-04-18T02:32:45.230Z,698.00
2023-04-18T02:33:15.243Z,694.00
2023-04-18T02:33:45.250Z,695.00
2023-04-18T02:34:15.390Z,696.00
2023-04-18T02:34:45.352Z,696.00
2023-04-18T02:35:15.361Z,695.00
2023-04-18T02:35:45.364Z,694.00
2023-04-18T02:36:15.377Z,693.00
2023-04-18T02:36:45.376Z,693.00
2023-04-18T02:37:15.386Z,692.00
2023-04-18T02:37:45.382Z,692.00
2023-04-18T02:38:15.423Z,692.00
2023-04-18T02:38:45.431Z,691.00
2023-04-18T02:39:15.432Z,692.00
2023-04-18T02:39:45.447Z,688.00
2023-04-18T02:40:15.463Z,688.00
2023-04-18T02:40:45.466Z,690.00
2023-04-18T02:41:15.480Z,688.00
2023-04-18T02:41:45.481Z,689.00
2023-04-18T02:42:15.505Z,690.00
2023-04-18T02:42:45.512Z,690.00
2023-04-18T02:43:15.524Z,690.00
2023-04-18T02:43:45.543Z,691.00
2023-04-18T02:44:15.620Z,692.00
2023-04-18T02:44:45.555Z,693.00
2023-04-18T02:45:15.566Z,694.00
2023-04-18T02:45:45.619Z,695.00
2023-04-18T02:46:15.648Z,697.00
2023-04-18T02:46:45.668Z,696.00
2023-04-18T02:47:15.672Z,695.00
2023-04-18T02:47:54.426Z,696.00
2023-04-18T02:48:15.850Z,696.00
2023-04-18T02:48:45.847Z,691.00
2023-04-18T02:49:15.856Z,689.00
2023-04-18T02:49:45.896Z,688.00
2023-04-18T02:50:15.895Z,688.00
2023-04-18T02:50:45.915Z,686.00
2023-04-18T02:51:15.902Z,683.00
2023-04-18T02:51:45.928Z,684.00
2023-04-18T02:52:15.925Z,683.00
2023-04-18T02:52:45.943Z,684.00
2023-04-18T02:53:15.989Z,687.00
2023-04-18T02:53:45.996Z,685.00
2023-04-18T02:54:16.209Z,685.00
2023-04-18T02:54:46.107Z,682.00
2023-04-18T02:55:16.146Z,680.00
2023-04-18T02:55:46.155Z,684.00
2023-04-18T02:56:16.164Z,683.00
2023-04-18T02:56:46.163Z,685.00
2023-04-18T02:57:16.180Z,684.00
2023-04-18T02:57:46.189Z,682.00
2023-04-18T02:58:16.219Z,684.00
2023-04-18T02:58:46.215Z,682.00
2023-04-18T02:59:16.219Z,687.00
2023-04-18T03:00:16.309Z,686.00
2023-04-18T03:00:46.320Z,683.00
2023-04-18T03:01:16.377Z,683.00
2023-04-18T03:01:46.488Z,682.00
2023-04-18T03:02:16.525Z,681.00
2023-04-18T03:02:46.646Z,682.00
2023-04-18T03:03:16.703Z,682.00
2023-04-18T03:03:46.616Z,685.00
2023-04-18T03:04:16.818Z,686.00
2023-04-18T03:04:46.683Z,684.00
2023-04-18T03:05:16.724Z,684.00
2023-04-18T03:05:46.707Z,685.00
2023-04-18T03:06:16.711Z,684.00
2023-04-18T03:06:46.718Z,687.00
2023-04-18T03:07:16.726Z,684.00
2023-04-18T03:07:46.731Z,686.00
2023-04-18T03:08:16.751Z,685.00
2023-04-18T03:08:46.757Z,681.00
2023-04-18T03:09:16.758Z,679.00
2023-04-18T03:09:46.758Z,681.00
2023-04-18T03:10:16.876Z,683.00
2023-04-18T03:10:46.946Z,678.00
2023-04-18T03:11:17.022Z,680.00
2023-04-18T03:11:47.100Z,680.00
2023-04-18T03:12:17.185Z,677.00
2023-04-18T03:12:47.283Z,676.00
2023-04-18T03:13:17.367Z,676.00
2023-04-18T03:13:47.445Z,676.00
2023-04-18T03:14:17.536Z,677.00
2023-04-18T03:14:47.618Z,674.00
2023-04-18T03:15:17.711Z,680.00
2023-04-18T03:15:47.845Z,682.00
2023-04-18T03:16:17.830Z,674.00
2023-04-18T03:16:47.923Z,674.00
2023-04-18T03:17:18.002Z,675.00
2023-04-18T03:17:48.116Z,677.00
2023-04-18T03:18:18.130Z,676.00
2023-04-18T03:18:48.243Z,677.00
2023-04-18T03:19:18.296Z,677.00
2023-04-18T03:19:48.372Z,675.00
2023-04-18T03:20:18.482Z,676.00
2023-04-18T03:20:48.491Z,674.00
2023-04-18T03:21:18.506Z,676.00
2023-04-18T03:21:48.502Z,675.00
2023-04-18T03:22:48.607Z,678.00
2023-04-18T03:23:18.614Z,677.00
2023-04-18T03:23:48.629Z,676.00
2023-04-18T03:24:18.644Z,676.00
2023-04-18T03:24:48.634Z,676.00
2023-04-18T03:25:18.639Z,679.00
2023-04-18T03:25:48.643Z,678.00
2023-04-18T03:26:18.657Z,684.00
2023-04-18T03:26:48.654Z,674.00
2023-04-18T03:27:18.660Z,676.00
2023-04-18T03:27:48.679Z,677.00
2023-04-18T03:28:18.694Z,680.00
2023-04-18T03:28:48.700Z,676.00
2023-04-18T03:29:18.712Z,688.00
2023-04-18T03:29:48.713Z,684.00
2023-04-18T03:30:18.723Z,679.00
2023-04-18T03:30:48.724Z,680.00
2023-04-18T03:31:18.776Z,678.00
2023-04-18T03:31:48.768Z,679.00
2023-04-18T03:32:18.799Z,671.00
2023-04-18T03:32:48.876Z,670.00
2023-04-18T03:33:18.826Z,671.00
2023-04-18T03:33:48.837Z,672.00
2023-04-18T03:34:18.852Z,673.00
2023-04-18T03:34:48.838Z,672.00
2023-04-18T03:35:48.913Z,675.00
2023-04-18T03:36:18.926Z,676.00
2023-04-18T03:36:48.926Z,673.00
2023-04-18T03:37:18.935Z,675.00
2023-04-18T03:37:48.939Z,675.00
2023-04-18T03:38:18.958Z,671.00
2023-04-18T03:38:48.956Z,674.00
2023-04-18T03:39:18.970Z,675.00
2023-04-18T03:39:48.956Z,676.00
2023-04-18T03:40:49.055Z,675.00
2023-04-18T03:41:19.050Z,669.00
2023-04-18T03:41:49.061Z,671.00
2023-04-18T03:42:19.079Z,673.00
2023-04-18T03:42:49.087Z,672.00
2023-04-18T03:43:19.097Z,669.00
2023-04-18T03:43:49.096Z,671.00
2023-04-18T03:44:19.130Z,667.00
2023-04-18T03:44:49.103Z,669.00
2023-04-18T03:45:19.121Z,672.00
2023-04-18T03:45:49.192Z,670.00
2023-04-18T03:46:19.234Z,672.00
2023-04-18T03:46:49.241Z,672.00
2023-04-18T03:47:19.305Z,674.00
2023-04-18T03:47:49.356Z,672.00
2023-04-18T03:48:19.338Z,668.00
2023-04-18T03:48:49.352Z,669.00
2023-04-18T03:49:19.370Z,668.00
2023-04-18T03:49:49.385Z,675.00
2023-04-18T03:50:19.388Z,669.00
2023-04-18T03:51:19.453Z,665.00
2023-04-18T03:51:49.473Z,665.00
2023-04-18T03:52:19.466Z,662.00
2023-04-18T03:52:49.481Z,664.00
2023-04-18T03:53:19.496Z,667.00
2023-04-18T03:53:49.488Z,665.00
2023-04-18T03:54:19.513Z,663.00
2023-04-18T03:54:49.515Z,659.00
2023-04-18T03:55:19.511Z,652.00
2023-04-18T03:55:49.509Z,656.00
2023-04-18T03:56:19.518Z,657.00
2023-04-18T03:56:49.526Z,656.00
2023-04-18T03:57:19.522Z,658.00
2023-04-18T03:57:49.539Z,656.00
2023-04-18T03:58:19.536Z,660.00
2023-04-18T03:59:19.613Z,656.00
2023-04-18T03:59:49.623Z,655.00
2023-04-18T04:00:19.626Z,657.00
2023-04-18T04:00:49.624Z,658.00
2023-04-18T04:01:19.644Z,661.00
2023-04-18T04:01:49.663Z,659.00
2023-04-18T04:02:19.822Z,660.00
2023-04-18T04:02:49.899Z,660.00
2023-04-18T04:03:19.978Z,666.00
2023-04-18T04:03:50.005Z,665.00
2023-04-18T04:04:19.904Z,664.00
2023-04-18T04:04:49.867Z,663.00
2023-04-18T04:05:19.922Z,661.00
2023-04-18T04:05:49.900Z,659.00
2023-04-18T04:06:49.995Z,656.00
2023-04-18T04:07:19.994Z,653.00
2023-04-18T04:07:50.012Z,659.00
2023-04-18T04:08:20.013Z,662.00
2023-04-18T04:08:50.010Z,667.00
2023-04-18T04:09:20.037Z,665.00
2023-04-18T04:09:50.040Z,666.00
2023-04-18T04:10:20.137Z,667.00
2023-04-18T04:10:50.217Z,668.00
2023-04-18T04:11:20.309Z,667.00
2023-04-18T04:11:50.400Z,665.00
2023-04-18T04:12:20.481Z,660.00
2023-04-18T04:12:50.572Z,656.00
2023-04-18T04:13:20.659Z,652.00
2023-04-18T04:13:50.732Z,655.00
2023-04-18T04:14:20.818Z,650.00
2023-04-18T04:14:50.895Z,657.00
2023-04-18T04:15:20.977Z,656.00
2023-04-18T04:15:51.048Z,656.00
2023-04-18T04:16:21.198Z,657.00
2023-04-18T04:16:51.177Z,655.00
2023-04-18T04:17:21.231Z,655.00
2023-04-18T04:17:51.378Z,655.00
2023-04-18T04:18:21.333Z,656.00
2023-04-18T04:18:51.415Z,657.00
2023-04-18T04:19:21.495Z,660.00
2023-04-18T04:19:51.576Z,655.00
2023-04-18T04:20:21.602Z,652.00
2023-04-18T04:20:51.651Z,657.00
2023-04-18T04:21:21.647Z,661.00
2023-04-18T04:22:21.737Z,658.00
2023-04-18T04:22:51.749Z,658.00
2023-04-18T04:23:21.749Z,658.00
2023-04-18T04:23:51.764Z,659.00
2023-04-18T04:24:21.765Z,662.00
2023-04-18T04:24:51.766Z,662.00
2023-04-18T04:25:21.772Z,664.00
2023-04-18T04:25:51.780Z,663.00
2023-04-18T04:26:21.780Z,660.00
2023-04-18T04:26:51.797Z,660.00
2023-04-18T04:27:21.816Z,663.00
2023-04-18T04:27:51.812Z,663.00
2023-04-18T04:28:21.817Z,667.00
2023-04-18T04:28:51.817Z,664.00
2023-04-18T04:29:21.833Z,661.00
2023-04-18T04:29:51.832Z,662.00
2023-04-18T04:30:21.832Z,662.00
2023-04-18T04:30:51.837Z,666.00
2023-04-18T04:31:21.936Z,666.00
2023-04-18T04:31:52.001Z,667.00
2023-04-18T04:32:22.133Z,666.00
2023-04-18T04:32:52.174Z,662.00
2023-04-18T04:33:22.150Z,664.00
2023-04-18T04:33:52.149Z,662.00
2023-04-18T04:34:22.155Z,660.00
2023-04-18T04:34:52.193Z,664.00
2023-04-18T04:35:22.179Z,681.00
2023-04-18T04:35:52.181Z,676.00
2023-04-18T04:36:22.210Z,674.00
2023-04-18T04:36:52.190Z,674.00
2023-04-18T04:37:22.217Z,673.00
2023-04-18T04:37:52.220Z,676.00
2023-04-18T04:38:52.322Z,674.00
2023-04-18T04:39:22.316Z,680.00
2023-04-18T04:39:52.355Z,695.00
2023-04-18T04:40:22.383Z,715.00
2023-04-18T04:40:52.387Z,718.00
2023-04-18T04:41:22.415Z,719.00
2023-04-18T04:41:52.400Z,725.00
2023-04-18T04:42:22.428Z,724.00
2023-04-18T04:42:52.445Z,722.00
2023-04-18T04:43:22.443Z,724.00
2023-04-18T04:43:52.469Z,724.00
2023-04-18T04:44:22.495Z,725.00
2023-04-18T04:44:52.511Z,728.00
2023-04-18T04:45:22.540Z,730.00
2023-04-18T04:45:52.621Z,735.00
2023-04-18T04:46:22.671Z,732.00
2023-04-18T04:46:52.639Z,732.00
2023-04-18T04:47:22.708Z,733.00
2023-04-18T04:47:52.736Z,729.00
2023-04-18T04:48:22.738Z,727.00
2023-04-18T04:48:52.752Z,725.00
2023-04-18T04:49:22.750Z,727.00
2023-04-18T04:49:52.766Z,729.00
2023-04-18T04:50:22.771Z,731.00
2023-04-18T04:50:52.768Z,733.00
2023-04-18T04:51:22.771Z,733.00
2023-04-18T04:51:52.808Z,732.00
2023-04-18T04:52:22.815Z,732.00
2023-04-18T04:52:52.821Z,697.00
2023-04-18T04:53:22.819Z,682.00
2023-04-18T04:54:22.896Z,668.00
2023-04-18T04:54:52.914Z,661.00
2023-04-18T04:55:22.923Z,605.00
2023-04-18T04:55:52.920Z,554.00
2023-04-18T04:56:53.012Z,555.00
2023-04-18T04:57:23.019Z,551.00
2023-04-18T04:57:53.025Z,547.00
2023-04-18T04:58:23.042Z,544.00
2023-04-18T04:58:53.103Z,542.00
2023-04-18T04:59:23.081Z,534.00
2023-04-18T04:59:53.088Z,523.00
2023-04-18T05:00:23.096Z,519.00
2023-04-18T05:00:53.139Z,522.00
2023-04-18T05:01:23.179Z,520.00
2023-04-18T05:01:53.315Z,529.00
2023-04-18T05:02:23.472Z,532.00
2023-04-18T05:02:53.551Z,541.00
2023-04-18T05:03:23.524Z,540.00
2023-04-18T05:03:53.485Z,539.00
2023-04-18T05:04:23.571Z,540.00
2023-04-18T05:04:53.530Z,541.00
2023-04-18T05:05:23.518Z,548.00
2023-04-18T05:05:53.529Z,560.00
2023-04-18T05:06:23.537Z,585.00
2023-04-18T05:06:53.545Z,596.00
2023-04-18T05:07:23.640Z,601.00
2023-04-18T05:07:53.619Z,603.00
2023-04-18T05:08:53.719Z,608.00
2023-04-18T05:09:23.721Z,609.00
2023-04-18T05:09:53.720Z,617.00
2023-04-18T05:10:23.813Z,615.00
2023-04-18T05:10:53.884Z,618.00
2023-04-18T05:11:23.979Z,620.00
2023-04-18T05:11:54.066Z,626.00
2023-04-18T05:12:24.170Z,625.00
2023-04-18T05:12:54.250Z,626.00
2023-04-18T05:13:24.363Z,627.00
2023-04-18T05:13:54.449Z,628.00
2023-04-18T05:14:24.553Z,630.00
2023-04-18T05:14:54.537Z,631.00
2023-04-18T05:15:24.634Z,637.00
2023-04-18T05:15:54.711Z,644.00
2023-04-18T05:16:24.868Z,649.00
2023-04-18T05:16:54.888Z,650.00
2023-04-18T05:17:24.886Z,652.00
2023-04-18T05:17:54.924Z,658.00
2023-04-18T05:18:24.905Z,653.00
2023-04-18T05:18:54.993Z,651.00
2023-04-18T05:19:25.066Z,654.00
2023-04-18T05:19:55.152Z,657.00
2023-04-18T05:20:25.175Z,658.00
2023-04-18T05:20:55.174Z,659.00
2023-04-18T05:21:25.186Z,660.00
2023-04-18T05:21:55.202Z,664.00
2023-04-18T05:22:25.220Z,665.00
2023-04-18T05:22:55.260Z,666.00
2023-04-18T05:23:25.242Z,667.00
2023-04-18T05:24:25.339Z,674.00
2023-04-18T05:24:55.350Z,676.00
2023-04-18T05:25:25.352Z,678.00
2023-04-18T05:25:55.362Z,680.00
2023-04-18T05:26:25.379Z,683.00
2023-04-18T05:26:55.379Z,688.00
2023-04-18T05:27:25.418Z,693.00
2023-04-18T05:27:55.423Z,704.00
2023-04-18T05:28:25.420Z,709.00
2023-04-18T05:28:55.438Z,713.00
2023-04-18T05:29:25.449Z,712.00
2023-04-18T05:29:55.449Z,713.00
2023-04-18T05:30:25.491Z,716.00
2023-04-18T05:30:55.552Z,720.00
2023-04-18T05:31:25.628Z,721.00
2023-04-18T05:31:55.625Z,722.00
2023-04-18T05:32:25.708Z,722.00
2023-04-18T05:32:55.706Z,722.00
2023-04-18T05:33:25.715Z,725.00
2023-04-18T05:33:55.757Z,729.00
2023-04-18T05:34:25.750Z,734.00
2023-04-18T05:34:55.758Z,735.00
2023-04-18T05:35:25.776Z,735.00
2023-04-18T05:35:55.782Z,735.00
2023-04-18T05:36:25.777Z,736.00
2023-04-18T05:36:55.786Z,738.00
2023-04-18T05:37:25.809Z,738.00
2023-04-18T05:37:55.806Z,738.00
2023-04-18T05:38:25.886Z,741.00
2023-04-18T05:38:55.880Z,749.00
2023-04-18T05:39:25.889Z,754.00
2023-04-18T05:39:55.908Z,751.00
2023-04-18T05:40:25.900Z,750.00
2023-04-18T05:40:56.048Z,751.00
2023-04-18T05:41:25.935Z,755.00
2023-04-18T05:41:55.936Z,755.00
2023-04-18T05:42:25.966Z,754.00
2023-04-18T05:42:55.987Z,754.00
2023-04-18T05:43:25.972Z,755.00
2023-04-18T05:44:04.957Z,758.00
2023-04-18T05:44:26.078Z,761.00
2023-04-18T05:44:56.093Z,767.00
2023-04-18T05:45:26.098Z,769.00
2023-04-18T05:45:57.748Z,766.00
2023-04-18T05:46:26.205Z,767.00
2023-04-18T05:46:56.212Z,769.00
2023-04-18T05:47:26.281Z,769.00
2023-04-18T05:47:56.296Z,770.00
2023-04-18T05:48:26.339Z,771.00
2023-04-18T05:48:56.327Z,772.00
2023-04-18T05:49:26.333Z,771.00
2023-04-18T05:49:56.344Z,771.00
2023-04-18T05:50:26.354Z,771.00
2023-04-18T05:50:56.380Z,770.00
2023-04-18T05:51:26.370Z,769.00
2023-04-18T05:51:56.383Z,767.00
2023-04-18T05:52:26.408Z,766.00
2023-04-18T05:52:56.410Z,767.00
2023-04-18T05:53:26.419Z,767.00
2023-04-18T05:53:56.457Z,766.00
2023-04-18T05:54:26.453Z,767.00
2023-04-18T05:54:56.480Z,769.00
2023-04-18T05:55:26.481Z,771.00
2023-04-18T05:55:56.485Z,771.00
2023-04-18T05:56:26.490Z,773.00
2023-04-18T05:56:56.505Z,773.00
2023-04-18T05:57:26.529Z,771.00
2023-04-18T05:57:56.558Z,771.00
2023-04-18T05:58:26.548Z,770.00
2023-04-18T05:58:56.553Z,771.00
2023-04-18T05:59:26.565Z,770.00
2023-04-18T05:59:56.557Z,767.00
2023-04-18T06:00:26.567Z,767.00
2023-04-18T06:00:56.586Z,768.00
2023-04-18T06:01:26.586Z,768.00
2023-04-18T06:01:56.618Z,769.00
2023-04-18T06:02:26.764Z,770.00
2023-04-18T06:02:56.913Z,769.00
2023-04-18T06:03:26.942Z,767.00
2023-04-18T06:03:56.977Z,767.00
2023-04-18T06:04:26.809Z,766.00
2023-04-18T06:04:57.126Z,767.00
2023-04-18T06:05:27.161Z,767.00
2023-04-18T06:05:57.045Z,765.00
2023-04-18T06:06:26.976Z,765.00
2023-04-18T06:06:56.983Z,764.00
2023-04-18T06:07:27.009Z,761.00
2023-04-18T06:07:57.020Z,759.00
2023-04-18T06:08:27.043Z,762.00
2023-04-18T06:08:57.041Z,762.00
2023-04-18T06:09:27.052Z,765.00
2023-04-18T06:09:57.081Z,765.00
2023-04-18T06:10:27.165Z,764.00
2023-04-18T06:10:57.253Z,764.00
2023-04-18T06:11:27.333Z,766.00
2023-04-18T06:11:57.437Z,767.00
2023-04-18T06:12:27.536Z,768.00
2023-04-18T06:12:57.629Z,765.00
2023-04-18T06:13:27.715Z,763.00
2023-04-18T06:13:57.800Z,765.00
2023-04-18T06:14:27.900Z,764.00
2023-04-18T06:14:57.977Z,762.00
2023-04-18T06:15:28.068Z,763.00
2023-04-18T06:15:58.177Z,763.00
2023-04-18T06:16:28.285Z,762.00
2023-04-18T06:16:58.217Z,766.00
2023-04-18T06:17:28.327Z,772.00
2023-04-18T06:17:58.331Z,769.00
2023-04-18T06:18:28.348Z,770.00
2023-04-18T06:19:01.107Z,773.00
2023-04-18T06:19:28.543Z,771.00
2023-04-18T06:19:58.626Z,770.00
2023-04-18T06:20:28.640Z,769.00
2023-04-18T06:20:58.676Z,766.00
2023-04-18T06:21:28.692Z,768.00
2023-04-18T06:21:58.710Z,769.00
2023-04-18T06:22:28.734Z,772.00
2023-04-18T06:22:58.738Z,773.00
2023-04-18T06:23:28.742Z,775.00
2023-04-18T06:23:58.763Z,773.00
2023-04-18T06:24:30.178Z,774.00
2023-04-18T06:24:58.888Z,775.00